• Join FlightAware (Why Join?)
  • Login
  • US Flag 
09:37AM EDT


 

Airport Tracker/Info


-or-


 

Live Flight TrackerFlight Track Log ✈ SWA3675 ✈ 30-Apr-2013 ✈ KALB - KBWI

Flight Track Log - Related Links

Times and Time Zones

All times are in EDT time to prevent confusion due to time zone crossing. See the SWA3675 flight status page for this flight to view local times or setup timezone preferences in your user account.

Time Position Orientation Groundspeed Altitude Reporting Facility
EDT Latitude Longitude Course Direction KTS MPH feet Rate Location/Type
05:51PM 42.7319 -73.8081 169° South 149 171 1,200  Level Boston Center
05:51PM 42.7192 -73.8164 206° Southwest 152 175 2,000 1,860 Climbing Boston Center
05:52PM 42.6875 -73.8694 231° Southwest 248 285 3,700 2,520 Climbing Boston Center
05:53PM 42.7406 -73.9497 312° West 300 345 7,200 3,060 Climbing Boston Center
05:54PM 42.8000 -74.0247 317° Northwest 305 351 10,000 3,420 Climbing Boston Center
05:55PM 42.8572 -74.1028 315° West 294 338 14,100 3,900 Climbing Boston Center
05:56PM 42.8658 -74.2161 276° West 293 337 17,900 3,300 Climbing Boston Center
05:57PM 42.2597 -74.2169 169° South  Level Estimated
05:57PM 42.8206 -74.3111 237° Southwest 269 310 20,800  Level Boston Center
05:58PM 42.7211 -74.2714 164° South 242 278 22,700 2,580 Climbing Boston Center
05:59PM 42.6222 -74.2036 153° Southeast 323 372 26,000 2,640 Climbing Boston Center
06:00PM 42.5272 -74.1389 153° Southeast 348 400 28,000 960 Climbing Boston Center
06:01PM 42.4242 -74.0714 154° Southeast 383 441 28,000  Level Boston Center
06:02PM 42.3128 -73.9928 152° Southeast 422 486 28,000  Level Boston Center
06:03PM 42.1989 -73.9197 155° Southeast 449 517 28,000  Level Boston Center
06:04PM 42.0914 -73.8669 160° South 454 522 28,000  Level Boston Center
06:05PM 41.9678 -73.9033 192° South 442 509 28,000  Level Boston Center
06:06PM 41.8483 -73.9533 197° South 441 507 28,000  Level Boston Center
06:07PM 41.7331 -74.0008 197° South 441 507 28,000  Level Boston Center
06:09PM 41.4914 -74.1028 198° South 449 517 28,000  Level New York Center
06:10PM 41.3672 -74.1575 198° South 454 522 28,000 -60 Level New York Center
06:11PM 41.2322 -74.2114 197° South 454 522 27,900 -600 Descending New York Center
06:12PM 41.1122 -74.2603 197° South 460 529 26,800 -960 Descending New York Center
06:13PM 40.9958 -74.3147 199° South 460 529 26,000 -420 Descending New York Center
06:14PM 40.8778 -74.3636 197° South 450 518 26,000  Level New York Center
06:15PM 40.7714 -74.4372 208° Southwest 431 496 26,000 -480 Level New York Center
06:16PM 40.7372 -74.5917 254° West 401 461 25,100 -960 Descending New York Center
06:17PM 40.7075 -74.7406 255° West 407 468 24,100 -960 Descending New York Center
06:18PM 40.6406 -74.8706 236° Southwest 418 481 23,200 -960 Descending New York Center
06:19PM 40.5756 -74.9953 236° Southwest 423 487 22,200 -1,020 Descending New York Center
06:20PM 40.5106 -75.1194 235° Southwest 423 487 21,200 -1,020 Descending New York Center
06:21PM 40.4197 -75.2119 218° Southwest 410 472 20,200 -1,020 Descending New York Center
06:22PM 40.3308 -75.2986 217° Southwest 410 472 19,200 -960 Descending New York Center
06:23PM 40.2447 -75.3719 213° Southwest 410 472 18,300 -600 Descending New York Center
06:24PM 40.1517 -75.4581 215° Southwest 415 478 18,000 -180 Descending New York Center
06:25PM 40.0542 -75.5492 216° Southwest 415 478 18,000 -60 Level New York Center
06:26PM 39.9719 -75.6222 214° Southwest 410 472 17,900 -660 Descending New York Center
06:27PM 39.8864 -75.7300 224° Southwest 397 457 16,800 -1,020 Descending New York Center
06:28PM 39.8339 -75.8342 237° Southwest 395 455 15,900 -1,020 Descending New York Center
06:30PM 39.7333 -76.0333 237° Southwest 374 430 14,100 -1,020 Descending Potomac TRACON
06:31PM 39.6667 -76.1333 229° Southwest 368 423 13,200 -960 Descending Potomac TRACON
06:32PM 39.6167 -76.2500 241° Southwest 361 415 12,200 -1,080 Descending Potomac TRACON
06:33PM 39.5500 -76.3500 229° Southwest 334 384 11,100 -1,200 Descending Potomac TRACON
06:34PM 39.5333 -76.4667 260° West 300 345 9,800 -1,380 Descending Potomac TRACON
06:35PM 39.5167 -76.5667 258° West 288 331 8,400 -1,560 Descending Potomac TRACON
06:36PM 39.5167 -76.6667 270° West 288 331 6,700 -1,620 Descending Potomac TRACON
06:37PM 39.5000 -76.7667 258° West 287 330 5,200 -900 Descending Potomac TRACON
06:38PM 39.4667 -76.8500 243° Southwest 280 322 5,000 -600 Descending Potomac TRACON
06:39PM 39.4167 -76.9333 232° Southwest 282 325 4,000 -540 Descending Potomac TRACON
06:40PM 39.3667 -76.9667 207° Southwest 236 272 4,000  Level Potomac TRACON
06:41PM 39.3000 -76.9500 169° South 224 258 4,000  Level Potomac TRACON
06:42PM 39.2500 -76.9500 180° South 229 264 4,000  Level Potomac TRACON
06:43PM 39.2000 -77.0000 218° Southwest 199 229 4,000  Level Potomac TRACON
06:44PM 39.1833 -76.9500 113° Southeast 154 177 4,000 -480 Level Potomac TRACON
06:45PM 39.1833 -76.9167 90° East 133 153 3,100 -660 Descending Potomac TRACON
06:46PM 39.1833 -76.8667 90° East 131 151 2,700 -540 Descending Potomac TRACON
06:47PM 39.1833 -76.8167 90° East 131 151 2,100 -600 Descending Potomac TRACON